createdAt,value
2022-12-11T00:00:24.398Z,95.13
2022-12-11T00:02:51.283Z,97.72
2022-12-11T00:05:18.207Z,106.45
2022-12-11T00:07:45.030Z,92.03
2022-12-11T00:10:11.827Z,102.88
2022-12-11T00:12:38.614Z,107.80
2022-12-11T00:15:05.753Z,104.47
2022-12-11T00:17:32.506Z,106.50
2022-12-11T00:19:59.308Z,100.25
2022-12-11T00:22:26.067Z,104.32
2022-12-11T00:24:52.834Z,101.65
2022-12-11T00:27:19.552Z,107.03
2022-12-11T00:29:46.306Z,99.75
2022-12-11T00:32:13.126Z,103.47
2022-12-11T00:34:40.033Z,104.07
2022-12-11T00:37:06.820Z,105.18
2022-12-11T00:39:33.619Z,108.47
2022-12-11T00:42:00.337Z,100.70
2022-12-11T00:44:27.100Z,109.60
2022-12-11T00:46:53.902Z,105.50
2022-12-11T00:49:20.675Z,110.88
2022-12-11T00:51:47.422Z,114.53
2022-12-11T00:54:14.186Z,111.45
2022-12-11T00:56:40.993Z,114.10
2022-12-11T00:59:08.051Z,114.30
2022-12-11T01:01:34.924Z,111.53
2022-12-11T01:04:01.712Z,119.82
2022-12-11T01:06:28.948Z,117.30
2022-12-11T01:09:15.178Z,107.75
2022-12-11T01:11:43.325Z,107.40
2022-12-11T01:14:11.792Z,120.47
2022-12-11T01:16:38.666Z,118.82
2022-12-11T01:19:05.478Z,116.05
2022-12-11T01:21:32.312Z,103.57
2022-12-11T01:23:59.143Z,117.55
2022-12-11T01:26:26.079Z,111.07
2022-12-11T01:28:52.996Z,106.25
2022-12-11T01:31:22.216Z,115.10
2022-12-11T01:33:49.529Z,115.35
2022-12-11T01:36:21.558Z,112.25
2022-12-11T01:38:49.505Z,112.10
2022-12-11T01:41:18.218Z,109.20
2022-12-11T01:43:58.163Z,114.68
2022-12-11T01:46:25.921Z,111.80
2022-12-11T01:48:53.690Z,117.82
2022-12-11T01:51:21.313Z,112.38
2022-12-11T01:53:53.733Z,117.50
2022-12-11T01:56:20.580Z,114.47
2022-12-11T01:58:52.319Z,111.50
2022-12-11T02:01:34.954Z,115.20
2022-12-11T02:04:02.432Z,113.57
2022-12-11T02:06:42.757Z,109.32
2022-12-11T02:09:13.725Z,121.47
2022-12-11T02:12:09.140Z,116.43
2022-12-11T02:14:44.906Z,125.50
2022-12-11T02:17:23.489Z,125.60
2022-12-11T02:19:52.990Z,115.38
2022-12-11T02:22:50.806Z,127.68
2022-12-11T02:25:51.067Z,109.28
2022-12-11T02:28:43.515Z,122.18
2022-12-11T02:31:21.406Z,116.55
2022-12-11T02:33:59.524Z,106.00
2022-12-11T02:36:31.275Z,126.13
2022-12-11T02:39:01.096Z,118.40
2022-12-11T02:41:29.804Z,110.78
2022-12-11T02:43:58.585Z,107.53
2022-12-11T02:46:26.275Z,104.75
2022-12-11T02:48:55.053Z,100.50
2022-12-11T02:51:27.083Z,112.05
2022-12-11T02:53:57.093Z,99.90
2022-12-11T02:56:33.253Z,97.13
2022-12-11T02:59:15.585Z,97.25
2022-12-11T03:01:43.372Z,96.97
2022-12-11T03:04:10.459Z,93.38
2022-12-11T03:06:44.996Z,89.70
2022-12-11T03:09:11.793Z,95.13
2022-12-11T03:11:38.741Z,94.60
2022-12-11T03:14:06.883Z,82.18
2022-12-11T03:16:39.312Z,73.40
2022-12-11T03:19:15.116Z,77.85
2022-12-11T03:22:11.841Z,71.13
2022-12-11T03:24:48.013Z,74.30
2022-12-11T03:27:36.502Z,78.00
2022-12-11T03:30:11.500Z,79.50
2022-12-11T03:32:50.230Z,76.15
2022-12-11T03:35:23.046Z,81.32
2022-12-11T03:40:20.577Z,75.45
2022-12-11T03:42:51.485Z,84.32
2022-12-11T03:45:21.161Z,75.35
2022-12-11T03:47:48.561Z,80.82
2022-12-11T03:50:18.240Z,74.22
2022-12-11T03:52:46.983Z,85.75
2022-12-11T03:55:16.969Z,81.68
2022-12-11T03:57:44.092Z,81.50
2022-12-11T04:00:14.361Z,75.28
2022-12-11T04:02:42.385Z,73.97
2022-12-11T04:05:10.887Z,83.63
2022-12-11T04:07:37.980Z,82.47
2022-12-11T04:10:05.879Z,79.22
2022-12-11T04:12:32.743Z,79.65
2022-12-11T04:15:02.226Z,75.47
2022-12-11T04:17:49.380Z,84.13
2022-12-11T04:20:35.277Z,79.97
2022-12-11T04:23:23.695Z,83.63
2022-12-11T04:25:51.038Z,83.85
2022-12-11T04:28:18.346Z,84.70
2022-12-11T04:30:49.801Z,79.47
2022-12-11T04:33:17.012Z,85.10
2022-12-11T04:35:43.877Z,78.78
2022-12-11T04:38:10.919Z,71.45
2022-12-11T04:40:37.846Z,81.00
2022-12-11T04:43:04.760Z,80.78
2022-12-11T04:45:31.690Z,77.22
2022-12-11T04:47:59.616Z,88.78
2022-12-11T04:50:26.686Z,80.30
2022-12-11T04:52:57.649Z,85.78
2022-12-11T04:55:25.990Z,93.88
2022-12-11T04:57:52.904Z,86.43
2022-12-11T05:00:19.862Z,84.38
2022-12-11T05:02:46.816Z,80.13
2022-12-11T05:05:14.335Z,83.05
2022-12-11T05:07:41.996Z,86.97
2022-12-11T05:10:09.905Z,85.90
2022-12-11T05:12:37.062Z,98.10
2022-12-11T05:15:04.065Z,92.63
2022-12-11T05:17:30.862Z,97.75
2022-12-11T05:19:57.818Z,96.07
2022-12-11T05:22:24.674Z,103.22
2022-12-11T05:24:51.470Z,104.13
2022-12-11T05:27:18.228Z,100.82
2022-12-11T05:29:45.063Z,121.22
2022-12-11T05:32:11.824Z,107.90
2022-12-11T05:34:38.727Z,96.97
2022-12-11T05:37:05.744Z,99.28
2022-12-11T05:39:32.664Z,104.82
2022-12-11T05:41:59.418Z,104.18
2022-12-11T05:44:27.103Z,114.78
2022-12-11T05:46:54.073Z,109.28
2022-12-11T05:49:25.927Z,108.43
2022-12-11T05:51:55.925Z,122.57
2022-12-11T05:54:22.964Z,119.75
2022-12-11T05:56:51.301Z,127.10
2022-12-11T05:59:19.726Z,115.53
2022-12-11T06:01:46.676Z,119.55
2022-12-11T06:04:13.719Z,115.43
2022-12-11T06:06:40.887Z,124.03
2022-12-11T06:09:08.434Z,127.03
2022-12-11T06:11:36.123Z,126.28
2022-12-11T06:14:03.915Z,129.82
2022-12-11T06:16:31.328Z,131.68
2022-12-11T06:18:58.859Z,136.70
2022-12-11T06:21:28.502Z,144.25
2022-12-11T06:23:57.346Z,147.82
2022-12-11T06:26:25.308Z,154.45
2022-12-11T06:28:54.043Z,144.77
2022-12-11T06:31:21.875Z,143.55
2022-12-11T06:33:49.117Z,149.30
2022-12-11T06:36:18.775Z,151.07
2022-12-11T06:38:46.223Z,145.93
2022-12-11T06:41:13.766Z,158.07
2022-12-11T06:43:43.236Z,153.43
2022-12-11T06:46:13.354Z,156.32
2022-12-11T06:48:42.255Z,142.20
2022-12-11T06:51:18.497Z,141.88
2022-12-11T06:53:45.960Z,147.27
2022-12-11T06:56:15.146Z,148.70
2022-12-11T06:58:42.978Z,148.45
2022-12-11T07:01:25.228Z,151.55
2022-12-11T07:03:59.626Z,145.20
2022-12-11T07:06:28.398Z,143.90
2022-12-11T07:08:55.850Z,146.10
2022-12-11T07:11:23.336Z,130.25
2022-12-11T07:13:50.325Z,141.43
2022-12-11T07:16:18.780Z,137.52
2022-12-11T07:18:50.507Z,130.80
2022-12-11T07:21:17.575Z,139.50
2022-12-11T07:23:44.446Z,140.88
2022-12-11T07:26:15.061Z,141.05
2022-12-11T07:28:42.506Z,131.23
2022-12-11T07:31:11.875Z,143.38
2022-12-11T07:33:39.054Z,137.02
2022-12-11T07:36:07.817Z,139.25
2022-12-11T07:38:34.885Z,136.77
2022-12-11T07:41:06.533Z,139.57
2022-12-11T07:43:34.228Z,132.90
2022-12-11T07:46:07.026Z,134.23
2022-12-11T07:51:16.119Z,138.00
2022-12-11T07:53:44.356Z,135.52
2022-12-11T07:56:11.817Z,139.65
2022-12-11T07:58:39.007Z,140.30
2022-12-11T08:01:35.269Z,150.40
2022-12-11T08:04:03.854Z,133.63
2022-12-11T08:06:33.789Z,137.02
2022-12-11T08:09:03.604Z,152.18
2022-12-11T08:11:30.611Z,137.48
2022-12-11T08:13:59.699Z,137.40
2022-12-11T08:16:27.308Z,124.25
2022-12-11T08:18:54.398Z,127.68
2022-12-11T08:21:23.702Z,127.88
2022-12-11T08:23:51.971Z,126.60
2022-12-11T08:26:28.165Z,123.90
2022-12-11T08:28:55.600Z,127.00
2022-12-11T08:31:22.582Z,115.05
2022-12-11T08:33:50.749Z,121.60
2022-12-11T08:36:20.285Z,132.10
2022-12-11T08:38:50.512Z,118.72
2022-12-11T08:44:02.138Z,115.88
2022-12-11T08:46:33.230Z,118.28
2022-12-11T08:49:00.337Z,120.05
2022-12-11T08:51:29.243Z,114.03
2022-12-11T08:53:57.629Z,123.15
2022-12-11T08:56:25.391Z,120.15
2022-12-11T08:58:52.984Z,117.20
2022-12-11T09:01:22.240Z,114.88
2022-12-11T09:03:50.730Z,117.93
2022-12-11T09:06:19.775Z,114.53
2022-12-11T09:08:52.188Z,119.28
2022-12-11T09:11:25.933Z,115.10
2022-12-11T09:13:54.211Z,112.65
2022-12-11T09:16:23.443Z,115.40
2022-12-11T09:18:51.954Z,114.55
2022-12-11T09:21:21.427Z,110.95
2022-12-11T09:23:48.423Z,111.90
2022-12-11T09:26:17.821Z,121.55
2022-12-11T09:28:46.986Z,112.63
2022-12-11T09:31:20.194Z,120.35
2022-12-11T09:33:47.652Z,116.05
2022-12-11T09:36:14.430Z,119.20
2022-12-11T09:38:43.590Z,112.00
2022-12-11T09:41:22.534Z,107.72
2022-12-11T09:43:54.976Z,109.32
2022-12-11T09:46:24.700Z,105.60
2022-12-11T09:48:53.799Z,101.90
2022-12-11T09:51:48.402Z,112.25
2022-12-11T09:54:16.604Z,103.07
2022-12-11T09:56:52.564Z,104.95
2022-12-11T09:59:31.067Z,98.47
2022-12-11T10:02:05.758Z,104.38
2022-12-11T10:04:35.334Z,101.50
2022-12-11T10:07:21.586Z,97.00
2022-12-11T10:10:19.071Z,89.70
2022-12-11T10:13:06.154Z,91.70
2022-12-11T10:16:04.140Z,97.80
2022-12-11T10:18:32.681Z,96.90
2022-12-11T10:21:02.614Z,95.53
2022-12-11T10:23:36.563Z,88.68
2022-12-11T10:26:10.606Z,88.72
2022-12-11T10:28:37.570Z,92.05
2022-12-11T10:31:42.748Z,95.93
2022-12-11T10:34:15.158Z,79.95
2022-12-11T10:36:43.001Z,82.13
2022-12-11T10:39:21.830Z,77.28
2022-12-11T10:41:54.285Z,76.35
2022-12-11T10:44:26.949Z,72.18
2022-12-11T10:47:12.183Z,72.10
2022-12-11T10:49:44.192Z,72.32
2022-12-11T10:52:19.789Z,64.80
2022-12-11T10:54:54.342Z,68.28
2022-12-11T10:57:37.024Z,63.78
2022-12-11T11:00:08.961Z,61.22
2022-12-11T11:02:41.533Z,66.10
2022-12-11T11:05:14.487Z,66.15
2022-12-11T11:10:11.996Z,66.25
2022-12-11T11:12:42.920Z,64.43
2022-12-11T11:15:16.537Z,63.95
2022-12-11T11:22:17.243Z,59.60
2022-12-11T11:24:56.727Z,53.25
2022-12-11T11:27:45.776Z,46.13
2022-12-11T11:30:41.008Z,48.67
2022-12-11T11:33:22.140Z,45.10
2022-12-11T11:35:55.353Z,50.72
2022-12-11T11:38:46.637Z,53.38
2022-12-11T11:41:24.154Z,52.75
2022-12-11T11:43:58.043Z,54.72
2022-12-11T11:46:46.261Z,56.67
2022-12-11T11:49:13.072Z,59.47
2022-12-11T11:51:49.088Z,59.88
2022-12-11T11:54:33.497Z,53.22
2022-12-11T11:57:12.552Z,54.35
2022-12-11T11:59:47.969Z,46.40
2022-12-11T12:02:18.175Z,49.13
2022-12-11T12:04:47.040Z,48.13
2022-12-11T12:07:38.771Z,47.55
2022-12-11T12:10:12.277Z,46.38
2022-12-11T12:13:18.781Z,50.63
2022-12-11T12:16:01.866Z,49.20
2022-12-11T12:18:34.568Z,40.45
2022-12-11T12:21:28.663Z,46.75
2022-12-11T12:24:12.458Z,51.80
2022-12-11T12:26:47.084Z,44.35
2022-12-11T12:29:43.415Z,46.13
2022-12-11T12:32:21.885Z,41.97
2022-12-11T12:35:15.955Z,39.80
2022-12-11T12:38:07.241Z,45.63
2022-12-11T12:40:38.214Z,46.75
2022-12-11T12:43:37.278Z,48.95
2022-12-11T12:46:10.450Z,45.45
2022-12-11T12:48:37.538Z,47.90
2022-12-11T12:51:05.355Z,43.97
2022-12-11T12:53:36.180Z,46.42
2022-12-11T12:56:04.530Z,44.70
2022-12-11T12:58:40.676Z,42.10
2022-12-11T13:01:13.444Z,44.05
2022-12-11T13:06:39.146Z,43.92
2022-12-11T13:09:27.880Z,44.35
2022-12-11T13:11:59.659Z,44.78
2022-12-11T13:14:31.213Z,46.13
2022-12-11T13:17:19.767Z,47.28
2022-12-11T13:19:48.185Z,45.60
2022-12-11T13:22:14.982Z,45.58
2022-12-11T13:24:52.562Z,48.92
2022-12-11T13:27:36.713Z,44.92
2022-12-11T13:30:08.254Z,44.45
2022-12-11T13:32:35.402Z,46.38
2022-12-11T13:35:06.581Z,47.67
2022-12-11T13:37:41.581Z,42.97
2022-12-11T13:40:23.812Z,49.10
2022-12-11T13:42:55.657Z,46.43
2022-12-11T13:45:28.730Z,42.17
2022-12-11T13:47:57.500Z,50.05
2022-12-11T13:50:31.799Z,48.75
2022-12-11T13:53:00.623Z,51.10
2022-12-11T13:55:30.916Z,49.08
2022-12-11T13:57:58.254Z,51.28
2022-12-11T14:00:33.481Z,51.30
2022-12-11T14:03:07.543Z,56.30
2022-12-11T14:05:35.117Z,51.55
2022-12-11T14:08:09.351Z,51.15
2022-12-11T14:10:37.214Z,56.47
2022-12-11T14:13:22.278Z,53.60
2022-12-11T14:15:49.395Z,57.03
2022-12-11T14:18:23.711Z,60.15
2022-12-11T14:21:05.227Z,53.53
2022-12-11T14:23:37.356Z,51.53
2022-12-11T14:26:22.773Z,51.60
2022-12-11T14:28:50.035Z,54.15
2022-12-11T14:31:26.462Z,51.30
2022-12-11T14:34:20.878Z,56.38
2022-12-11T14:36:49.217Z,50.60
2022-12-11T14:40:07.243Z,57.63
2022-12-11T14:43:15.067Z,48.55
2022-12-11T14:45:45.033Z,50.13
2022-12-11T14:48:22.180Z,52.42
2022-12-11T14:50:55.005Z,45.65
2022-12-11T14:56:02.684Z,47.70
2022-12-11T14:58:30.046Z,40.70
2022-12-11T15:01:20.744Z,42.95
2022-12-11T15:03:47.747Z,45.45
2022-12-11T15:06:33.296Z,44.15
2022-12-11T15:09:36.204Z,48.40
2022-12-11T15:12:13.916Z,46.60
2022-12-11T15:14:56.115Z,43.33
2022-12-11T15:17:25.497Z,39.70
2022-12-11T15:19:56.132Z,38.30
2022-12-11T15:22:27.502Z,40.22
2022-12-11T15:24:55.145Z,40.95
2022-12-11T15:27:38.350Z,42.97
2022-12-11T15:30:28.371Z,46.33
2022-12-11T15:33:22.397Z,45.15
2022-12-11T15:36:05.171Z,42.10
2022-12-11T15:38:37.762Z,47.35
2022-12-11T15:41:06.104Z,47.83
2022-12-11T15:43:36.860Z,48.92
2022-12-11T15:46:05.112Z,47.45
2022-12-11T15:48:32.024Z,49.08
2022-12-11T15:50:58.953Z,47.92
2022-12-11T15:53:25.927Z,47.70
2022-12-11T15:56:03.219Z,53.42
2022-12-11T15:58:34.180Z,49.03
2022-12-11T16:01:32.773Z,48.38
2022-12-11T16:04:08.120Z,53.42
2022-12-11T16:06:52.894Z,44.92
2022-12-11T16:09:21.099Z,50.47
2022-12-11T16:11:50.230Z,46.13
2022-12-11T16:14:24.357Z,51.65
2022-12-11T16:17:08.004Z,46.58
2022-12-11T16:19:39.342Z,52.90
2022-12-11T16:22:17.347Z,52.33
2022-12-11T16:24:54.367Z,47.50
2022-12-11T16:27:25.704Z,57.83
2022-12-11T16:29:55.369Z,53.42
2022-12-11T16:32:28.841Z,49.42
2022-12-11T16:35:04.890Z,50.85
2022-12-11T16:37:34.683Z,50.63
2022-12-11T16:40:05.421Z,53.40
2022-12-11T16:42:37.244Z,54.80
2022-12-11T16:45:40.248Z,59.13
2022-12-11T16:48:14.662Z,53.53
2022-12-11T16:50:50.700Z,49.95
2022-12-11T16:53:22.081Z,53.22
2022-12-11T16:55:53.464Z,51.40
2022-12-11T16:58:30.568Z,47.40
2022-12-11T17:01:02.559Z,56.20
2022-12-11T17:03:32.823Z,54.17
2022-12-11T17:06:32.156Z,54.55
2022-12-11T17:09:15.661Z,51.28
2022-12-11T17:11:57.117Z,50.92
2022-12-11T17:14:28.828Z,55.88
2022-12-11T17:17:12.298Z,54.67
2022-12-11T17:19:45.237Z,51.90
2022-12-11T17:22:12.251Z,59.83
2022-12-11T17:24:39.190Z,55.63
2022-12-11T17:27:06.634Z,54.75
2022-12-11T17:29:34.452Z,54.85
2022-12-11T17:32:03.307Z,57.33
2022-12-11T17:34:36.144Z,55.35
2022-12-11T17:37:05.227Z,51.50
2022-12-11T17:39:32.470Z,49.80
2022-12-11T17:41:59.610Z,58.65
2022-12-11T17:44:26.923Z,50.53
2022-12-11T17:46:55.075Z,51.05
2022-12-11T17:49:21.894Z,55.08
2022-12-11T17:51:48.678Z,49.00
2022-12-11T17:54:15.738Z,49.80
2022-12-11T17:56:42.645Z,53.17
2022-12-11T17:59:09.480Z,53.25
2022-12-11T18:01:36.422Z,56.13
2022-12-11T18:04:03.856Z,55.47
2022-12-11T18:06:30.856Z,49.83
2022-12-11T18:08:58.576Z,53.15
2022-12-11T18:11:25.848Z,49.25
2022-12-11T18:13:53.589Z,53.50
2022-12-11T18:16:25.237Z,52.28
2022-12-11T18:18:52.473Z,50.17
2022-12-11T18:21:24.268Z,50.95
2022-12-11T18:23:51.547Z,50.40
2022-12-11T18:26:19.551Z,54.42
2022-12-11T18:28:47.863Z,52.92
2022-12-11T18:31:15.523Z,53.20
2022-12-11T18:33:44.285Z,56.97
2022-12-11T18:36:12.990Z,52.08
2022-12-11T18:38:40.440Z,53.40
2022-12-11T18:41:08.885Z,46.90
2022-12-11T18:43:37.511Z,48.55
2022-12-11T18:46:14.238Z,45.97
2022-12-11T18:48:42.193Z,48.03
2022-12-11T18:51:12.216Z,49.53
2022-12-11T18:53:39.589Z,52.95
2022-12-11T18:56:12.653Z,45.65
2022-12-11T18:58:39.801Z,48.83
2022-12-11T19:01:10.919Z,48.03
2022-12-11T19:03:37.979Z,44.13
2022-12-11T19:06:14.012Z,49.28
2022-12-11T19:08:41.397Z,45.63
2022-12-11T19:11:08.669Z,47.25
2022-12-11T19:13:36.084Z,43.13
2022-12-11T19:16:03.055Z,49.45
2022-12-11T19:18:29.931Z,44.13
2022-12-11T19:21:06.780Z,45.13
2022-12-11T19:23:36.417Z,48.17
2022-12-11T19:26:03.606Z,45.28
2022-12-11T19:28:31.133Z,47.97
2022-12-11T19:30:58.231Z,44.28
2022-12-11T19:33:25.205Z,44.92
2022-12-11T19:36:05.726Z,44.72
2022-12-11T19:38:32.939Z,45.28
2022-12-11T19:40:59.959Z,44.90
2022-12-11T19:43:26.789Z,49.00
2022-12-11T19:45:53.862Z,48.05
2022-12-11T19:48:20.964Z,53.00
2022-12-11T19:50:47.895Z,47.97
2022-12-11T19:53:14.822Z,49.40
2022-12-11T19:55:48.598Z,49.20
2022-12-11T19:58:15.593Z,50.80
2022-12-11T20:00:42.703Z,55.10
2022-12-11T20:03:09.664Z,47.38
2022-12-11T20:05:37.368Z,50.35
2022-12-11T20:08:27.731Z,49.58
2022-12-11T20:10:51.405Z,52.10
2022-12-11T20:13:18.219Z,47.88
2022-12-11T20:15:45.200Z,53.33
2022-12-11T20:18:18.296Z,45.38
2022-12-11T20:20:45.666Z,47.05
2022-12-11T20:23:12.476Z,49.78
2022-12-11T20:25:41.096Z,47.25
2022-12-11T20:28:08.423Z,46.92
2022-12-11T20:30:35.700Z,47.10
2022-12-11T20:33:02.673Z,46.15
2022-12-11T20:35:29.490Z,51.22
2022-12-11T20:37:56.534Z,44.90
2022-12-11T20:40:24.427Z,49.28
2022-12-11T20:42:52.110Z,52.25
2022-12-11T20:45:19.131Z,45.40
2022-12-11T20:47:46.787Z,43.17
2022-12-11T20:50:13.774Z,43.65
2022-12-11T20:52:40.751Z,44.20
2022-12-11T20:55:08.348Z,45.05
2022-12-11T20:57:37.348Z,52.95
2022-12-11T21:00:08.162Z,43.75
2022-12-11T21:02:35.368Z,42.33
2022-12-11T21:05:02.278Z,45.60
2022-12-11T21:07:29.156Z,44.03
2022-12-11T21:09:55.935Z,49.78
2022-12-11T21:12:26.894Z,44.92
2022-12-11T21:14:56.860Z,41.60
2022-12-11T21:17:23.942Z,43.47
2022-12-11T21:19:51.249Z,43.78
2022-12-11T21:22:18.057Z,47.60
2022-12-11T21:24:44.985Z,41.30
2022-12-11T21:27:11.796Z,47.08
2022-12-11T21:29:38.780Z,51.33
2022-12-11T21:32:06.005Z,86.60
2022-12-11T21:34:33.156Z,62.63
2022-12-11T21:37:00.144Z,49.17
2022-12-11T21:39:28.788Z,53.85
2022-12-11T21:41:55.645Z,46.28
2022-12-11T21:47:09.696Z,45.10
2022-12-11T21:49:37.580Z,47.22
2022-12-11T21:52:05.221Z,46.28
2022-12-11T21:54:32.186Z,41.20
2022-12-11T21:56:59.246Z,47.00
2022-12-11T21:59:27.059Z,43.83
2022-12-11T22:01:54.049Z,44.83
2022-12-11T22:04:20.887Z,46.13
2022-12-11T22:06:47.960Z,44.22
2022-12-11T22:09:16.200Z,40.42
2022-12-11T22:11:45.190Z,44.22
2022-12-11T22:14:14.771Z,43.08
2022-12-11T22:16:42.074Z,41.65
2022-12-11T22:19:09.724Z,43.40
2022-12-11T22:21:37.028Z,37.28
2022-12-11T22:24:04.241Z,41.80
2022-12-11T22:26:31.162Z,41.05
2022-12-11T22:28:59.267Z,37.10
2022-12-11T22:31:27.324Z,37.92
2022-12-11T22:33:55.031Z,38.17
2022-12-11T22:36:24.132Z,43.17
2022-12-11T22:38:51.555Z,36.85
2022-12-11T22:41:31.039Z,41.33
2022-12-11T22:43:58.889Z,41.42
2022-12-11T22:46:29.021Z,33.65
2022-12-11T22:48:56.988Z,39.67
2022-12-11T22:51:24.011Z,39.20
2022-12-11T22:53:52.211Z,38.10
2022-12-11T22:56:20.969Z,43.72
2022-12-11T22:58:48.081Z,34.58
2022-12-11T23:01:19.041Z,42.17
2022-12-11T23:03:47.010Z,37.55
2022-12-11T23:06:17.037Z,31.70
2022-12-11T23:08:44.236Z,32.47
2022-12-11T23:11:34.902Z,36.58
2022-12-11T23:14:02.296Z,32.75
2022-12-11T23:16:29.597Z,33.22
2022-12-11T23:18:58.213Z,35.25
2022-12-11T23:21:27.951Z,35.10
2022-12-11T23:23:56.305Z,35.17
2022-12-11T23:26:23.708Z,35.85
2022-12-11T23:28:50.513Z,30.08
2022-12-11T23:31:18.247Z,33.15
2022-12-11T23:33:45.574Z,35.65
2022-12-11T23:36:13.783Z,33.13
2022-12-11T23:38:41.022Z,36.72
2022-12-11T23:41:10.132Z,39.22
2022-12-11T23:43:37.901Z,34.45
2022-12-11T23:46:07.887Z,36.80
2022-12-11T23:48:34.737Z,34.08
2022-12-11T23:51:03.294Z,33.75
2022-12-11T23:53:30.298Z,34.00
2022-12-11T23:55:57.248Z,36.83
2022-12-11T23:58:24.151Z,33.88
